createdAt,value
2023-04-05T00:02:06.770Z,2.60
2023-04-05T00:04:33.444Z,2.20
2023-04-05T00:07:00.110Z,1.90
2023-04-05T00:09:26.647Z,1.80
2023-04-05T00:11:53.201Z,2.10
2023-04-05T00:14:19.747Z,2.20
2023-04-05T00:16:46.438Z,1.70
2023-04-05T00:19:13.150Z,1.30
2023-04-05T00:21:39.699Z,1.40
2023-04-05T00:24:06.277Z,1.50
2023-04-05T00:26:32.809Z,1.20
2023-04-05T00:28:59.423Z,1.30
2023-04-05T00:31:26.040Z,1.20
2023-04-05T00:33:52.664Z,1.30
2023-04-05T00:36:19.266Z,1.40
2023-04-05T00:38:45.878Z,1.30
2023-04-05T00:41:12.457Z,1.40
2023-04-05T00:43:39.165Z,1.40
2023-04-05T00:46:05.759Z,1.00
2023-04-05T00:48:32.342Z,1.20
2023-04-05T00:50:58.929Z,1.20
2023-04-05T00:53:25.788Z,1.50
2023-04-05T00:55:52.357Z,1.60
2023-04-05T00:58:18.966Z,1.30
2023-04-05T01:00:45.551Z,1.10
2023-04-05T01:03:12.107Z,1.10
2023-04-05T01:05:38.650Z,0.90
2023-04-05T01:08:05.200Z,0.90
2023-04-05T01:10:31.756Z,1.10
2023-04-05T01:12:58.351Z,1.30
2023-04-05T01:15:24.923Z,1.50
2023-04-05T01:17:51.626Z,1.60
2023-04-05T01:20:18.277Z,1.70
2023-04-05T01:22:44.841Z,1.80
2023-04-05T01:25:11.392Z,1.80
2023-04-05T01:27:37.980Z,1.50
2023-04-05T01:30:04.587Z,1.50
2023-04-05T01:32:31.316Z,1.00
2023-04-05T01:34:57.916Z,1.10
2023-04-05T01:37:24.504Z,1.30
2023-04-05T01:39:51.085Z,1.50
2023-04-05T01:42:17.622Z,1.40
2023-04-05T01:44:44.262Z,0.90
2023-04-05T01:47:10.926Z,0.40
2023-04-05T01:49:37.489Z,-0.10
2023-04-05T01:52:04.043Z,-0.30
2023-04-05T01:54:30.639Z,-0.10
2023-04-05T01:56:57.183Z,0.30
2023-04-05T01:59:23.951Z,0.10
2023-04-05T02:01:50.890Z,-0.20
2023-04-05T02:04:17.516Z,0.10
2023-04-05T02:06:44.265Z,0.40
2023-04-05T02:09:10.821Z,0.20
2023-04-05T02:11:37.381Z,0.30
2023-04-05T02:14:03.928Z,-0.10
2023-04-05T02:16:30.610Z,0.00
2023-04-05T02:18:57.292Z,0.10
2023-04-05T02:21:23.957Z,0.50
2023-04-05T02:23:50.525Z,0.50
2023-04-05T02:26:17.205Z,0.60
2023-04-05T02:28:43.784Z,0.40
2023-04-05T02:31:10.482Z,0.40
2023-04-05T02:33:37.064Z,0.50
2023-04-05T02:36:03.659Z,0.60
2023-04-05T02:38:31.371Z,0.20
2023-04-05T02:40:57.932Z,-0.10
2023-04-05T02:43:24.694Z,0.10
2023-04-05T02:45:51.693Z,0.20
2023-04-05T02:48:18.270Z,0.40
2023-04-05T02:50:44.849Z,0.10
2023-04-05T02:53:17.333Z,0.20
2023-04-05T02:55:43.885Z,0.20
2023-04-05T02:58:10.473Z,-0.10
2023-04-05T03:00:37.035Z,-0.20
2023-04-05T03:03:03.782Z,-0.60
2023-04-05T03:05:30.488Z,-0.20
2023-04-05T03:07:57.087Z,-0.10
2023-04-05T03:10:23.670Z,-0.20
2023-04-05T03:12:50.228Z,-0.10
2023-04-05T03:15:16.877Z,0.00
2023-04-05T03:17:43.522Z,0.20
2023-04-05T03:20:10.527Z,-0.40
2023-04-05T03:22:37.074Z,-0.60
2023-04-05T03:25:03.852Z,-0.40
2023-04-05T03:27:30.501Z,0.00
2023-04-05T03:29:59.120Z,0.30
2023-04-05T03:32:26.154Z,0.00
2023-04-05T03:34:52.820Z,0.20
2023-04-05T03:37:19.396Z,0.20
2023-04-05T03:39:45.958Z,0.30
2023-04-05T03:42:12.497Z,-0.30
2023-04-05T03:44:39.048Z,-0.20
2023-04-05T03:47:05.596Z,-0.30
2023-04-05T03:49:32.141Z,-0.40
2023-04-05T03:51:59.055Z,-0.10
2023-04-05T03:54:25.607Z,-0.30
2023-04-05T03:56:52.187Z,-0.40
2023-04-05T03:59:18.835Z,-0.70
2023-04-05T04:01:45.509Z,-0.30
2023-04-05T04:04:12.106Z,-0.10
2023-04-05T04:06:38.727Z,0.00
2023-04-05T04:09:05.281Z,-0.10
2023-04-05T04:11:31.855Z,-0.40
2023-04-05T04:13:58.444Z,-0.40
2023-04-05T04:16:26.763Z,-0.30
2023-04-05T04:18:55.249Z,-0.60
2023-04-05T04:21:21.855Z,-1.30
2023-04-05T04:23:48.385Z,-0.90
2023-04-05T04:26:14.951Z,-0.90
2023-04-05T04:28:41.506Z,-0.90
2023-04-05T04:31:08.092Z,-1.20
2023-04-05T04:33:34.658Z,-1.00
2023-04-05T04:36:01.226Z,-0.50
2023-04-05T04:38:27.783Z,-0.60
2023-04-05T04:40:54.321Z,-1.10
2023-04-05T04:43:20.902Z,-1.00
2023-04-05T04:45:47.510Z,-0.60
2023-04-05T04:48:14.078Z,-0.30
2023-04-05T04:50:40.668Z,-0.50
2023-04-05T04:53:07.210Z,-0.30
2023-04-05T04:55:33.879Z,-0.10
2023-04-05T04:58:00.538Z,0.00
2023-04-05T05:00:27.165Z,0.10
2023-04-05T05:02:53.832Z,-0.40
2023-04-05T05:05:20.429Z,-0.60
2023-04-05T05:07:47.002Z,-0.60
2023-04-05T05:10:13.574Z,-0.50
2023-04-05T05:12:40.247Z,-0.90
2023-04-05T05:15:06.814Z,-0.90
2023-04-05T05:17:33.404Z,-0.70
2023-04-05T05:19:59.981Z,-0.40
2023-04-05T05:22:26.561Z,-0.10
2023-04-05T05:24:53.121Z,-0.40
2023-04-05T05:27:19.641Z,-0.60
2023-04-05T05:29:46.244Z,-0.50
2023-04-05T05:32:12.779Z,-0.10
2023-04-05T05:34:40.276Z,-0.10
2023-04-05T05:37:06.807Z,0.00
2023-04-05T05:39:33.360Z,0.30
2023-04-05T05:41:59.922Z,0.50
2023-04-05T05:44:26.480Z,0.90
2023-04-05T05:46:53.102Z,1.00
2023-04-05T05:49:19.681Z,1.20
2023-04-05T05:51:46.261Z,1.30
2023-04-05T05:54:12.871Z,1.50
2023-04-05T05:56:39.432Z,1.60
2023-04-05T05:59:05.982Z,1.40
2023-04-05T06:01:32.597Z,1.50
2023-04-05T06:03:59.302Z,1.70
2023-04-05T06:06:26.066Z,2.10
2023-04-05T06:08:52.606Z,2.10
2023-04-05T06:11:19.173Z,2.10
2023-04-05T06:13:45.752Z,2.30
2023-04-05T06:16:12.393Z,2.20
2023-04-05T06:18:38.968Z,2.40
2023-04-05T06:21:05.621Z,2.60
2023-04-05T06:23:32.190Z,2.80
2023-04-05T06:25:58.736Z,3.00
2023-04-05T06:28:26.320Z,3.00
2023-04-05T06:30:53.061Z,3.20
2023-04-05T06:33:19.616Z,3.20
2023-04-05T06:35:46.230Z,3.20
2023-04-05T06:38:12.850Z,3.30
2023-04-05T06:40:39.640Z,3.20
2023-04-05T06:43:06.408Z,3.40
2023-04-05T06:45:33.061Z,3.60
2023-04-05T06:47:59.673Z,3.50
2023-04-05T06:50:26.295Z,3.60
2023-04-05T06:52:52.908Z,3.70
2023-04-05T06:55:19.593Z,3.70
2023-04-05T06:57:46.191Z,3.00
2023-04-05T07:00:12.746Z,2.80
2023-04-05T07:02:39.359Z,3.10
2023-04-05T07:05:05.985Z,3.10
2023-04-05T07:07:32.670Z,2.80
2023-04-05T07:09:59.218Z,3.00
2023-04-05T07:12:25.797Z,3.10
2023-04-05T07:14:52.659Z,2.80
2023-04-05T07:17:19.313Z,3.30
2023-04-05T07:19:45.945Z,4.00
2023-04-05T07:22:12.505Z,4.10
2023-04-05T07:24:39.320Z,3.90
2023-04-05T07:27:05.990Z,3.90
2023-04-05T07:29:32.882Z,4.10
2023-04-05T07:31:59.732Z,3.70
2023-04-05T07:34:26.313Z,4.10
2023-04-05T07:36:52.887Z,4.30
2023-04-05T07:39:19.608Z,3.90
2023-04-05T07:41:46.192Z,3.90
2023-04-05T07:44:12.747Z,3.90
2023-04-05T07:46:39.419Z,3.50
2023-04-05T07:49:06.035Z,4.10
2023-04-05T07:51:32.599Z,4.30
2023-04-05T07:54:00.708Z,4.70
2023-04-05T07:56:28.476Z,4.50
2023-04-05T07:58:55.106Z,4.80
2023-04-05T08:01:21.740Z,4.70
2023-04-05T08:03:48.406Z,4.50
2023-04-05T08:06:15.055Z,4.30
2023-04-05T08:08:41.712Z,4.00
2023-04-05T08:11:08.269Z,4.10
2023-04-05T08:13:34.858Z,3.60
2023-04-05T08:16:01.438Z,4.40
2023-04-05T08:18:28.393Z,4.90
2023-04-05T08:20:55.062Z,4.70
2023-04-05T08:23:21.628Z,5.10
2023-04-05T08:25:48.217Z,5.10
2023-04-05T08:28:14.762Z,4.70
2023-04-05T08:30:41.635Z,4.70
2023-04-05T08:33:08.454Z,4.70
2023-04-05T08:35:35.129Z,4.90
2023-04-05T08:38:01.704Z,5.20
2023-04-05T08:40:28.254Z,4.80
2023-04-05T08:42:54.818Z,5.20
2023-04-05T08:45:21.382Z,5.30
2023-04-05T08:47:47.956Z,5.80
2023-04-05T08:50:14.535Z,6.50
2023-04-05T08:52:41.105Z,5.60
2023-04-05T08:55:07.711Z,5.60
2023-04-05T08:57:34.339Z,5.70
2023-04-05T09:00:00.884Z,5.80
2023-04-05T09:02:27.478Z,6.20
2023-04-05T09:04:54.070Z,6.50
2023-04-05T09:07:20.625Z,7.10
2023-04-05T09:09:47.221Z,7.20
2023-04-05T09:12:13.804Z,7.40
2023-04-05T09:14:40.377Z,7.50
2023-04-05T09:17:07.040Z,7.40
2023-04-05T09:19:33.823Z,7.60
2023-04-05T09:22:00.398Z,7.60
2023-04-05T09:24:26.962Z,6.80
2023-04-05T09:26:53.538Z,7.40
2023-04-05T09:29:20.079Z,7.60
2023-04-05T09:31:46.702Z,8.20
2023-04-05T09:34:13.340Z,8.50
2023-04-05T09:36:39.907Z,8.60
2023-04-05T09:39:06.498Z,8.70
2023-04-05T09:41:33.058Z,8.80
2023-04-05T09:43:59.625Z,8.40
2023-04-05T09:46:26.241Z,9.10
2023-04-05T09:48:52.855Z,9.30
2023-04-05T09:51:19.472Z,8.50
2023-04-05T09:53:46.045Z,8.40
2023-04-05T09:56:12.579Z,8.70
2023-04-05T09:58:39.519Z,9.20
2023-04-05T10:03:40.418Z,8.90
2023-04-05T10:06:07.037Z,9.50
2023-04-05T10:08:33.563Z,9.60
2023-04-05T10:11:00.130Z,9.90
2023-04-05T10:13:26.670Z,9.90
2023-04-05T10:15:53.311Z,9.80
2023-04-05T10:18:19.927Z,10.20
2023-04-05T10:20:46.536Z,10.40
2023-04-05T10:23:13.117Z,10.70
2023-04-05T10:25:39.705Z,10.00
2023-04-05T10:28:06.334Z,9.80
2023-04-05T10:30:32.895Z,9.90
2023-04-05T10:32:59.544Z,10.20
2023-04-05T10:35:26.130Z,10.00
2023-04-05T10:37:53.181Z,10.50
2023-04-05T10:40:19.748Z,10.30
2023-04-05T10:42:46.301Z,10.80
2023-04-05T10:45:12.913Z,10.40
2023-04-05T10:47:39.541Z,10.80
2023-04-05T10:50:06.251Z,10.80
2023-04-05T10:52:33.129Z,10.90
2023-04-05T10:54:59.753Z,10.70
2023-04-05T10:57:26.562Z,11.10
2023-04-05T10:59:53.355Z,10.60
2023-04-05T11:02:20.053Z,10.90
2023-04-05T11:04:46.780Z,9.90
2023-04-05T11:07:13.429Z,10.30
2023-04-05T11:09:39.971Z,11.20
2023-04-05T11:12:06.541Z,11.30
2023-04-05T11:14:33.152Z,11.20
2023-04-05T11:16:59.899Z,10.90
2023-04-05T11:19:26.601Z,11.20
2023-04-05T11:21:53.220Z,11.00
2023-04-05T11:24:19.820Z,11.30
2023-04-05T11:26:46.375Z,11.40
2023-04-05T11:29:12.940Z,11.20
2023-04-05T11:31:39.688Z,11.70
2023-04-05T11:34:06.304Z,12.00
2023-04-05T11:36:32.850Z,11.70
2023-04-05T11:38:59.444Z,11.80
2023-04-05T11:41:26.008Z,11.50
2023-04-05T11:43:52.579Z,10.50
2023-04-05T11:46:19.374Z,11.40
2023-04-05T11:48:45.978Z,12.00
2023-04-05T11:51:12.562Z,12.30
2023-04-05T11:53:39.105Z,12.40
2023-04-05T11:56:05.678Z,12.50
2023-04-05T11:58:32.310Z,11.90
2023-04-05T12:01:00.042Z,11.60
2023-04-05T12:03:26.705Z,11.20
2023-04-05T12:05:53.327Z,11.80
2023-04-05T12:08:20.135Z,12.10
2023-04-05T12:10:46.749Z,11.90
2023-04-05T12:13:13.449Z,12.20
2023-04-05T12:15:40.381Z,12.10
2023-04-05T12:18:07.383Z,12.20
2023-04-05T12:20:34.026Z,12.40
2023-04-05T12:23:00.624Z,12.30
2023-04-05T12:25:27.229Z,12.30
2023-04-05T12:27:54.022Z,11.50
2023-04-05T12:30:20.920Z,12.20
2023-04-05T12:32:47.709Z,12.00
2023-04-05T12:35:14.488Z,11.80
2023-04-05T12:37:41.145Z,12.40
2023-04-05T12:40:07.712Z,12.80
2023-04-05T12:42:34.335Z,13.10
2023-04-05T12:45:00.942Z,13.40
2023-04-05T12:47:27.581Z,13.50
2023-04-05T12:49:54.791Z,13.80
2023-04-05T12:52:21.342Z,13.70
2023-04-05T12:54:47.917Z,13.30
2023-04-05T12:57:14.467Z,12.60
2023-04-05T12:59:41.057Z,12.60
2023-04-05T13:02:07.679Z,12.20
2023-04-05T13:04:34.285Z,11.60
2023-04-05T13:07:00.855Z,11.60
2023-04-05T13:09:27.574Z,12.00
2023-04-05T13:11:54.129Z,12.20
2023-04-05T13:14:20.730Z,12.40
2023-04-05T13:16:47.279Z,12.60
2023-04-05T13:19:13.803Z,13.00
2023-04-05T13:21:40.422Z,13.50
2023-04-05T13:24:06.974Z,13.10
2023-04-05T13:26:34.026Z,13.20
2023-04-05T13:29:00.594Z,12.40
2023-04-05T13:31:27.324Z,12.70
2023-04-05T13:33:53.943Z,11.80
2023-04-05T13:36:20.519Z,12.30
2023-04-05T13:38:47.099Z,12.50
2023-04-05T13:41:13.715Z,12.10
2023-04-05T13:43:40.269Z,12.10
2023-04-05T13:46:06.918Z,11.90
2023-04-05T13:48:33.572Z,11.80
2023-04-05T13:51:00.167Z,11.20
2023-04-05T13:53:28.450Z,11.20
2023-04-05T13:55:55.356Z,11.50
2023-04-05T13:58:22.063Z,11.60
2023-04-05T14:00:48.638Z,11.90
2023-04-05T14:03:15.333Z,12.20
2023-04-05T14:05:41.962Z,12.00
2023-04-05T14:08:08.572Z,12.40
2023-04-05T14:10:35.133Z,12.40
2023-04-05T14:13:01.721Z,12.60
2023-04-05T14:15:28.543Z,12.70
2023-04-05T14:17:56.345Z,12.60
2023-04-05T14:20:22.917Z,12.60
2023-04-05T14:22:49.508Z,12.80
2023-04-05T14:25:16.154Z,12.80
2023-04-05T14:27:42.876Z,13.20
2023-04-05T14:30:09.497Z,12.70
2023-04-05T14:32:36.074Z,12.80
2023-04-05T14:35:02.626Z,12.10
2023-04-05T14:37:29.210Z,12.10
2023-04-05T14:39:55.817Z,12.10
2023-04-05T14:42:22.398Z,12.30
2023-04-05T14:44:48.967Z,12.20
2023-04-05T14:47:15.931Z,12.50
2023-04-05T14:49:42.488Z,12.20
2023-04-05T14:52:09.048Z,12.20
2023-04-05T14:54:35.600Z,11.80
2023-04-05T14:57:02.136Z,11.80
2023-04-05T14:59:28.797Z,11.50
2023-04-05T15:01:55.395Z,12.00
2023-04-05T15:04:21.940Z,12.20
2023-04-05T15:06:48.553Z,12.60
2023-04-05T15:09:15.127Z,12.60
2023-04-05T15:11:41.810Z,12.60
2023-04-05T15:14:15.373Z,12.10
2023-04-05T15:16:47.895Z,12.20
2023-04-05T15:19:14.574Z,12.10
2023-04-05T15:21:41.396Z,12.40
2023-04-05T15:24:07.999Z,12.80
2023-04-05T15:26:34.567Z,12.10
2023-04-05T15:29:01.122Z,11.90
2023-04-05T15:31:27.740Z,11.90
2023-04-05T15:33:54.313Z,11.10
2023-04-05T15:36:20.934Z,10.90
2023-04-05T15:38:47.601Z,11.20
2023-04-05T15:41:14.280Z,10.90
2023-04-05T15:43:40.858Z,10.70
2023-04-05T15:46:07.474Z,10.50
2023-04-05T15:48:34.014Z,10.40
2023-04-05T15:51:00.728Z,10.70
2023-04-05T15:53:27.313Z,10.60
2023-04-05T15:55:53.870Z,10.60
2023-04-05T15:58:20.408Z,10.40
2023-04-05T16:00:46.980Z,10.00
2023-04-05T16:03:14.497Z,10.00
2023-04-05T16:05:41.270Z,9.90
2023-04-05T16:08:07.830Z,10.20
2023-04-05T16:10:34.698Z,10.20
2023-04-05T16:13:01.278Z,9.90
2023-04-05T16:15:27.825Z,9.80
2023-04-05T16:17:54.412Z,9.80
2023-04-05T16:20:20.964Z,9.80
2023-04-05T16:22:47.546Z,10.00
2023-04-05T16:25:14.115Z,9.90
2023-04-05T16:27:40.665Z,9.80
2023-04-05T16:30:07.234Z,10.20
2023-04-05T16:32:33.879Z,10.50
2023-04-05T16:35:00.492Z,9.90
2023-04-05T16:37:27.135Z,9.70
2023-04-05T16:39:53.708Z,9.60
2023-04-05T16:42:20.343Z,9.30
2023-04-05T16:44:46.957Z,9.10
2023-04-05T16:47:13.865Z,9.10
2023-04-05T16:49:40.465Z,9.10
2023-04-05T16:52:07.065Z,9.20
2023-04-05T16:54:33.637Z,9.40
2023-04-05T16:57:00.217Z,9.20
2023-04-05T16:59:27.809Z,8.90
2023-04-05T17:01:54.400Z,8.70
2023-04-05T17:04:20.968Z,8.60
2023-04-05T17:06:47.539Z,8.60
2023-04-05T17:09:14.096Z,8.70
2023-04-05T17:11:40.649Z,8.80
2023-04-05T17:14:07.258Z,8.70
2023-04-05T17:16:33.798Z,8.40
2023-04-05T17:19:00.442Z,8.50
2023-04-05T17:21:27.070Z,8.80
2023-04-05T17:23:53.677Z,8.80
2023-04-05T17:26:20.217Z,8.50
2023-04-05T17:28:46.766Z,8.10
2023-04-05T17:31:13.400Z,7.70
2023-04-05T17:33:39.969Z,7.50
2023-04-05T17:36:06.626Z,7.40
2023-04-05T17:38:33.193Z,7.80
2023-04-05T17:40:59.747Z,8.00
2023-04-05T17:43:26.334Z,8.30
2023-04-05T17:45:52.857Z,8.30
2023-04-05T17:48:19.555Z,7.90
2023-04-05T17:50:46.189Z,7.80
2023-04-05T17:53:12.785Z,8.00
2023-04-05T17:55:39.378Z,8.20
2023-04-05T17:58:05.933Z,8.20
2023-04-05T18:00:32.468Z,8.50
2023-04-05T18:03:04.777Z,8.70
2023-04-05T18:05:34.362Z,8.50
2023-04-05T18:08:00.922Z,8.20
2023-04-05T18:10:27.495Z,8.10
2023-04-05T18:12:54.037Z,8.20
2023-04-05T18:15:20.972Z,8.30
2023-04-05T18:17:47.653Z,8.20
2023-04-05T18:20:14.272Z,8.40
2023-04-05T18:22:40.810Z,8.60
2023-04-05T18:25:07.368Z,8.60
2023-04-05T18:27:33.925Z,8.00
2023-04-05T18:30:00.491Z,7.40
2023-04-05T18:32:27.122Z,7.00
2023-04-05T18:34:53.774Z,7.30
2023-04-05T18:37:22.396Z,7.50
2023-04-05T18:39:48.941Z,7.20
2023-04-05T18:42:15.514Z,7.30
2023-04-05T18:44:42.066Z,7.20
2023-04-05T18:47:08.626Z,7.30
2023-04-05T18:49:35.258Z,7.00
2023-04-05T18:52:02.061Z,7.20
2023-04-05T18:54:28.623Z,7.60
2023-04-05T18:56:55.193Z,7.60
2023-04-05T18:59:21.789Z,7.50
2023-04-05T19:01:48.518Z,7.60
2023-04-05T19:04:15.133Z,7.30
2023-04-05T19:06:41.682Z,7.10
2023-04-05T19:09:08.704Z,7.20
2023-04-05T19:11:35.449Z,7.00
2023-04-05T19:14:02.020Z,7.10
2023-04-05T19:16:28.781Z,7.00
2023-04-05T19:18:55.718Z,6.90
2023-04-05T19:21:22.431Z,6.60
2023-04-05T19:23:49.061Z,6.60
2023-04-05T19:26:15.639Z,6.70
2023-04-05T19:28:42.201Z,7.00
2023-04-05T19:31:08.835Z,6.90
2023-04-05T19:33:35.435Z,7.00
2023-04-05T19:36:02.131Z,7.30
2023-04-05T19:38:29.006Z,7.30
2023-04-05T19:40:55.671Z,7.00
2023-04-05T19:43:22.212Z,7.10
2023-04-05T19:45:48.797Z,7.20
2023-04-05T19:48:15.339Z,7.20
2023-04-05T19:50:42.204Z,7.10
2023-04-05T19:53:08.862Z,7.00
2023-04-05T19:55:35.429Z,7.00
2023-04-05T19:58:02.019Z,6.90
2023-04-05T20:00:28.589Z,6.60
2023-04-05T20:02:55.210Z,6.70
2023-04-05T20:05:21.775Z,6.70
2023-04-05T20:07:48.364Z,6.80
2023-04-05T20:10:15.484Z,6.80
2023-04-05T20:12:42.050Z,6.70
2023-04-05T20:15:08.740Z,6.20
2023-04-05T20:17:35.343Z,5.80
2023-04-05T20:20:02.068Z,6.10
2023-04-05T20:22:28.670Z,5.60
2023-04-05T20:24:55.223Z,5.70
2023-04-05T20:27:21.792Z,5.70
2023-04-05T20:29:48.366Z,5.50
2023-04-05T20:32:15.125Z,5.30
2023-04-05T20:34:41.700Z,4.80
2023-04-05T20:37:08.274Z,5.10
2023-04-05T20:39:38.920Z,5.40
2023-04-05T20:42:05.505Z,5.60
2023-04-05T20:44:32.157Z,5.60
2023-04-05T20:46:59.725Z,5.50
2023-04-05T20:49:26.275Z,5.40
2023-04-05T20:51:52.877Z,5.00
2023-04-05T20:54:19.433Z,5.30
2023-04-05T20:56:46.024Z,5.40
2023-04-05T20:59:12.827Z,5.40
2023-04-05T21:01:39.481Z,5.20
2023-04-05T21:04:06.066Z,5.30
2023-04-05T21:06:32.752Z,5.30
2023-04-05T21:08:59.290Z,4.90
2023-04-05T21:11:26.093Z,4.90
2023-04-05T21:13:53.027Z,5.00
2023-04-05T21:16:19.621Z,5.10
2023-04-05T21:18:47.467Z,5.10
2023-04-05T21:21:14.036Z,4.90
2023-04-05T21:23:40.613Z,4.80
2023-04-05T21:26:07.402Z,4.50
2023-04-05T21:28:34.105Z,4.30
2023-04-05T21:31:00.709Z,4.40
2023-04-05T21:33:27.292Z,4.40
2023-04-05T21:35:53.856Z,4.50
2023-04-05T21:38:20.643Z,4.60
2023-04-05T21:40:47.330Z,3.90
2023-04-05T21:43:13.898Z,4.20
2023-04-05T21:45:40.459Z,4.40
2023-04-05T21:48:07.147Z,4.50
2023-04-05T21:50:33.727Z,4.60
2023-04-05T21:53:00.274Z,4.60
2023-04-05T21:55:26.897Z,4.60
2023-04-05T21:57:53.482Z,4.60
2023-04-05T22:00:20.065Z,4.60
2023-04-05T22:02:46.675Z,4.50
2023-04-05T22:05:17.592Z,4.40
2023-04-05T22:07:52.631Z,4.30
2023-04-05T22:10:19.380Z,4.30
2023-04-05T22:12:45.910Z,4.30
2023-04-05T22:15:12.483Z,4.20
2023-04-05T22:17:39.053Z,4.00
2023-04-05T22:20:05.627Z,4.00
2023-04-05T22:22:32.199Z,4.10
2023-04-05T22:24:58.781Z,4.10
2023-04-05T22:27:25.346Z,4.10
2023-04-05T22:29:51.902Z,4.10
2023-04-05T22:32:18.446Z,3.90
2023-04-05T22:34:45.009Z,3.90
2023-04-05T22:37:11.576Z,3.80
2023-04-05T22:39:38.138Z,3.40
2023-04-05T22:42:04.693Z,3.50
2023-04-05T22:44:31.242Z,3.40
2023-04-05T22:46:57.807Z,3.60
2023-04-05T22:49:24.397Z,3.60
2023-04-05T22:51:50.973Z,3.70
2023-04-05T22:54:18.063Z,3.50
2023-04-05T22:56:44.773Z,3.50
2023-04-05T22:59:11.568Z,3.60
2023-04-05T23:01:38.332Z,3.80
2023-04-05T23:04:04.984Z,3.80
2023-04-05T23:06:31.663Z,3.70
2023-04-05T23:08:58.281Z,3.70
2023-04-05T23:11:24.862Z,3.70
2023-04-05T23:13:51.477Z,3.60
2023-04-05T23:16:18.111Z,3.60
2023-04-05T23:18:44.723Z,3.60
2023-04-05T23:21:11.318Z,3.60
2023-04-05T23:23:37.913Z,3.60
2023-04-05T23:26:04.472Z,3.60
2023-04-05T23:28:31.042Z,3.00
2023-04-05T23:30:57.668Z,2.80
2023-04-05T23:33:24.302Z,3.00
2023-04-05T23:35:50.900Z,3.10
2023-04-05T23:38:17.541Z,3.10
2023-04-05T23:40:44.250Z,2.80
2023-04-05T23:43:10.809Z,2.80
2023-04-05T23:45:37.437Z,2.40
2023-04-05T23:48:04.123Z,2.60
2023-04-05T23:50:30.857Z,2.80
2023-04-05T23:52:57.413Z,2.90
2023-04-05T23:55:23.994Z,2.90
2023-04-05T23:57:50.525Z,2.90
